Time;durP1;ratioP1;P1;durP2;ratioP2;P2;SDS_P1;SDS_P2;PMS_P1;PMS_P2;Temp;Humidity;BMP_temperature;BMP_pressure;BME280_temperature;BME280_humidity;BME280_pressure;Samples;Min_cycle;Max_cycle;Signal;HPM_P1;HPM_P2
2021/05/01 00:00:20;;;;;;;25.30;13.10;;;;;;;8.20;76.89;101429.38;5038791;28;20427;-73
2021/05/01 00:02:46;;;;;;;20.83;13.90;;;;;;;8.19;77.21;101431.13;5048138;28;20179;-73
2021/05/01 00:05:12;;;;;;;23.80;15.82;;;;;;;8.23;77.13;101429.13;5051643;28;20091;-72
2021/05/01 00:07:39;;;;;;;25.52;16.05;;;;;;;8.24;76.91;101431.63;5048248;28;20114;-72
2021/05/01 00:10:07;;;;;;;25.77;14.93;;;;;;;8.25;77.02;101425.47;5048716;28;20084;-72
2021/05/01 00:12:34;;;;;;;29.02;17.50;;;;;;;8.22;77.60;101430.09;5039479;28;20758;-73
2021/05/01 00:15:02;;;;;;;;;;;;;;;8.26;77.13;101423.69;5051367;28;20056;-72
2021/05/01 00:17:28;;;;;;;31.52;18.08;;;;;;;8.30;77.74;101414.66;5053978;28;19964;-72
2021/05/01 00:19:54;;;;;;;33.58;19.80;;;;;;;8.29;77.21;101413.81;5049013;28;20049;-72
2021/05/01 00:22:20;;;;;;;33.45;21.33;;;;;;;8.26;76.87;101419.28;5043468;28;20159;-73
2021/05/01 00:24:46;;;;;;;36.45;20.75;;;;;;;8.21;76.79;101421.44;5058577;28;20056;-72
2021/05/01 00:27:12;;;;;;;30.95;21.17;;;;;;;8.20;76.33;101416.31;5047238;28;20153;-72
2021/05/01 00:29:38;;;;;;;34.05;22.20;;;;;;;8.18;76.53;101418.19;5055971;28;20084;-72
2021/05/01 00:32:04;;;;;;;33.80;22.77;;;;;;;8.18;76.62;101420.81;5044347;28;20633;-72
2021/05/01 00:34:30;;;;;;;33.78;23.35;;;;;;;8.18;76.73;101419.03;5047207;28;20052;-72
2021/05/01 00:36:56;;;;;;;34.65;22.77;;;;;;;8.18;76.41;101419.03;5050347;28;20522;-72
2021/05/01 00:39:22;;;;;;;38.35;23.20;;;;;;;8.15;76.25;101419.25;5048610;28;20140;-72
2021/05/01 00:41:48;;;;;;;37.00;23.80;;;;;;;8.13;76.50;101410.69;5055297;28;20474;-73
2021/05/01 00:44:17;;;;;;;35.60;23.20;;;;;;;8.12;76.40;101414.28;5031277;28;20146;-72
2021/05/01 00:46:43;;;;;;;35.60;22.58;;;;;;;8.16;76.99;101412.25;5055850;28;20056;-73
2021/05/01 00:49:09;;;;;;;33.78;23.48;;;;;;;8.14;76.36;101414.97;5042820;28;20048;-72
2021/05/01 00:51:35;;;;;;;34.58;22.58;;;;;;;8.15;76.34;101414.03;5050479;28;20297;-72
2021/05/01 00:54:01;;;;;;;38.63;23.90;;;;;;;8.07;76.51;101411.97;5027070;28;20525;-72
2021/05/01 00:56:27;;;;;;;39.80;24.33;;;;;;;8.08;76.59;101408.44;5045921;28;20151;-73
2021/05/01 00:58:54;;;;;;;42.83;25.63;;;;;;;8.09;76.53;101401.44;5051115;28;20049;-72
2021/05/01 01:01:20;;;;;;;37.60;24.92;;;;;;;8.11;76.83;101405.59;5048636;28;20097;-72
2021/05/01 01:03:48;;;;;;;29.63;22.65;;;;;;;8.08;75.87;101405.81;5036892;28;20088;-71
2021/05/01 01:06:15;;;;;;;36.13;23.73;;;;;;;8.09;76.48;101415.31;5059653;28;20056;-73
2021/05/01 01:08:42;;;;;;;40.05;23.05;;;;;;;7.97;75.62;101410.19;5046089;28;20075;-73
2021/05/01 01:11:09;;;;;;;37.20;22.90;;;;;;;7.98;75.81;101412.69;5057088;28;20135;-72
2021/05/01 01:13:35;;;;;;;45.40;24.63;;;;;;;8.03;76.99;101413.16;5050161;28;20101;-72
2021/05/01 01:16:02;;;;;;;35.28;25.25;;;;;;;8.02;76.34;101403.69;5053314;28;20552;-72
2021/05/01 01:18:29;;;;;;;37.03;24.50;;;;;;;7.93;75.60;101413.03;5043781;28;20044;-72
2021/05/01 01:20:58;;;;;;;36.67;25.15;;;;;;;7.84;75.80;101412.88;5057463;28;20048;-72
2021/05/01 01:23:24;;;;;;;38.50;24.25;;;;;;;7.80;76.00;101406.22;5051698;28;20060;-72
2021/05/01 01:25:50;;;;;;;32.67;22.33;;;;;;;7.84;75.90;101407.66;5045792;28;20082;-72
2021/05/01 01:28:16;;;;;;;32.65;23.08;;;;;;;7.75;75.72;101405.75;5059743;28;20898;-72
2021/05/01 01:30:42;;;;;;;32.38;22.05;;;;;;;7.62;75.79;101400.56;5044503;28;20160;-71
2021/05/01 01:33:09;;;;;;;37.90;22.30;;;;;;;7.60;76.52;101405.91;5033026;28;20496;-71
2021/05/01 01:35:37;;;;;;;33.83;21.75;;;;;;;7.60;76.44;101408.53;5048441;28;20084;-71
2021/05/01 01:38:05;;;;;;;35.35;21.83;;;;;;;7.58;76.28;101401.75;5033672;28;20150;-71
2021/05/01 01:40:31;;;;;;;30.92;21.20;;;;;;;7.58;76.53;101404.38;5056162;28;20151;-72
2021/05/01 01:42:58;;;;;;;31.13;20.40;;;;;;;7.58;76.07;101399.97;5046924;28;20568;-72
2021/05/01 01:45:29;;;;;;;32.60;20.75;;;;;;;7.53;76.29;101407.31;5049117;28;20139;-72
2021/05/01 01:47:56;;;;;;;29.95;19.95;;;;;;;7.53;76.78;101407.31;5050722;28;20052;-71
2021/05/01 01:50:23;;;;;;;28.67;19.10;;;;;;;7.52;77.04;101409.06;5039507;28;20314;-72
2021/05/01 01:52:50;;;;;;;25.65;18.17;;;;;;;7.51;76.52;101404.00;5039440;28;20898;-72
2021/05/01 01:55:19;;;;;;;27.48;19.00;;;;;;;7.45;77.09;101401.84;5054624;28;20151;-72
2021/05/01 01:57:46;;;;;;;28.55;18.48;;;;;;;7.47;77.39;101407.78;5044146;28;20582;-72
2021/05/01 02:00:16;;;;;;;29.45;18.45;;;;;;;7.46;77.74;101400.88;5044237;28;20145;-73
2021/05/01 02:02:42;;;;;;;29.27;19.17;;;;;;;7.41;77.39;101400.38;5056052;28;20056;-72
2021/05/01 02:05:10;;;;;;;28.70;18.52;;;;;;;7.39;77.18;101407.47;5044806;28;20482;-72
2021/05/01 02:07:36;;;;;;;27.52;16.73;;;;;;;7.38;77.37;101409.25;5050136;28;20166;-71
2021/05/01 02:10:07;;;;;;;26.65;16.40;;;;;;;7.41;77.12;101409.03;5057438;28;20072;-72
2021/05/01 02:12:37;;;;;;;21.02;13.57;;;;;;;7.30;77.04;101409.81;5030776;28;20523;-72
2021/05/01 02:15:06;;;;;;;27.10;14.45;;;;;;;7.34;76.48;101405.22;5036816;28;20603;-73
2021/05/01 02:17:32;;;;;;;22.20;14.68;;;;;;;7.26;77.00;101402.31;5047235;28;20567;-72
2021/05/01 02:19:58;;;;;;;23.50;13.95;;;;;;;7.24;76.67;101402.44;5058952;28;20064;-72
2021/05/01 02:22:24;;;;;;;21.88;13.80;;;;;;;7.13;77.33;101395.38;5047007;28;20049;-72
2021/05/01 02:24:50;;;;;;;20.95;14.15;;;;;;;7.17;76.94;101388.16;5045584;28;20252;-72
2021/05/01 02:27:16;;;;;;;25.27;14.00;;;;;;;7.14;77.47;101393.59;5049111;28;20068;-72
2021/05/01 02:29:42;;;;;;;23.02;13.98;;;;;;;7.15;77.38;101395.25;5035975;28;20063;-71
2021/05/01 02:32:08;;;;;;;26.70;14.02;;;;;;;7.15;77.14;101391.81;5053414;28;20139;-72
2021/05/01 02:34:34;;;;;;;22.42;14.52;;;;;;;7.16;77.97;101396.94;5050264;28;20080;-72
2021/05/01 02:37:00;;;;;;;23.77;12.93;;;;;;;7.15;77.30;101400.47;5056487;28;20054;-72
2021/05/01 02:39:26;;;;;;;25.65;13.45;;;;;;;7.20;77.09;101394.94;5033606;28;20147;-72
2021/05/01 02:41:53;;;;;;;18.67;13.43;;;;;;;7.19;76.84;101388.88;5029787;28;20118;-72
2021/05/01 02:44:19;;;;;;;24.75;13.43;;;;;;;7.18;76.85;101389.81;5056321;28;20052;-72
2021/05/01 02:46:45;;;;;;;24.13;14.85;;;;;;;7.06;76.89;101391.53;5042982;28;20044;-72
2021/05/01 02:49:11;;;;;;;24.02;13.90;;;;;;;7.06;76.75;101393.31;5045127;28;20056;-72
2021/05/01 02:51:37;;;;;;;18.15;13.52;;;;;;;7.01;76.83;101391.03;5049074;28;20415;-72
2021/05/01 02:54:03;;;;;;;21.77;13.98;;;;;;;6.96;76.90;101387.94;5043555;28;20275;-72
2021/05/01 02:56:29;;;;;;;25.17;13.85;;;;;;;6.98;77.02;101385.19;5043167;28;20087;-72
2021/05/01 02:58:55;;;;;;;21.05;14.38;;;;;;;6.94;77.51;101395.03;5057696;28;20045;-72
2021/05/01 03:01:21;;;;;;;24.90;14.45;;;;;;;6.87;77.44;101391.19;5053213;28;20172;-72
2021/05/01 03:03:47;;;;;;;26.33;13.95;;;;;;;6.82;77.84;101388.03;5039627;28;20059;-73
2021/05/01 03:06:15;;;;;;;22.88;14.52;;;;;;;6.81;77.92;101389.00;5048381;28;20061;-72
2021/05/01 03:08:41;;;;;;;24.63;15.43;;;;;;;6.80;78.17;101379.50;5013977;28;20097;-73
2021/05/01 03:11:08;;;;;;;20.77;15.38;;;;;;;6.79;77.96;101381.28;5056162;28;20133;-72
2021/05/01 03:13:34;;;;;;;24.70;14.40;;;;;;;6.81;78.09;101371.56;5053875;28;20088;-71
2021/05/01 03:16:00;;;;;;;27.63;14.63;;;;;;;6.72;77.83;101375.69;5041573;28;20060;-71
2021/05/01 03:18:26;;;;;;;23.42;15.32;;;;;;;6.75;78.44;101368.59;5050910;28;20147;-72
2021/05/01 03:20:53;;;;;;;24.52;16.25;;;;;;;6.79;78.27;101375.25;5026917;28;20565;-72
2021/05/01 03:23:20;;;;;;;25.67;14.95;;;;;;;6.73;77.59;101368.69;5050086;28;20160;-72
2021/05/01 03:25:47;;;;;;;30.73;16.17;;;;;;;6.73;77.95;101361.69;5041359;28;20131;-72
2021/05/01 03:28:13;;;;;;;25.48;14.82;;;;;;;6.71;77.86;101363.56;5053961;28;20144;-72
2021/05/01 03:30:39;;;;;;;26.45;15.38;;;;;;;6.69;77.36;101365.44;5037880;28;20064;-72
2021/05/01 03:33:05;;;;;;;23.92;16.20;;;;;;;6.60;78.11;101365.25;5044705;28;20080;-72
2021/05/01 03:35:31;;;;;;;29.13;16.60;;;;;;;6.60;77.96;101363.47;5047361;28;20130;-71
2021/05/01 03:37:57;;;;;;;23.73;15.38;;;;;;;6.48;77.68;101364.34;5041061;28;20530;-72
2021/05/01 03:40:23;;;;;;;28.95;17.48;;;;;;;6.45;77.96;101361.94;5049441;28;20509;-72
2021/05/01 03:42:49;;;;;;;21.73;15.45;;;;;;;6.44;78.56;101360.28;5046109;28;20044;-72
2021/05/01 03:45:15;;;;;;;26.45;17.58;;;;;;;6.36;78.36;101357.38;5045484;28;20460;-72
2021/05/01 03:47:42;;;;;;;27.52;17.20;;;;;;;6.24;78.24;101365.09;5040036;28;20484;-72
2021/05/01 03:50:08;;;;;;;29.35;17.92;;;;;;;6.22;78.35;101360.94;5042834;28;20553;-72
2021/05/01 03:52:35;;;;;;;28.20;17.20;;;;;;;6.12;78.93;101360.72;5051767;28;20052;-72
2021/05/01 03:55:01;;;;;;;27.88;16.92;;;;;;;6.08;78.41;101367.09;5041730;28;20144;-72
2021/05/01 03:57:47;;;;;;;22.88;15.20;;;;;;;6.04;78.96;101365.63;5056285;28;20131;-71
2021/05/01 04:00:13;;;;;;;27.08;16.42;;;;;;;5.99;78.92;101350.28;5048716;28;20155;-72
2021/05/01 04:02:39;;;;;;;32.55;16.65;;;;;;;5.99;78.36;101359.88;5046044;28;20131;-72
2021/05/01 04:05:07;;;;;;;27.35;16.27;;;;;;;5.87;79.09;101372.75;5044578;28;20126;-71
2021/05/01 04:07:33;;;;;;;30.55;16.65;;;;;;;5.85;79.31;101366.81;5047292;28;20159;-72
2021/05/01 04:09:59;;;;;;;27.85;17.02;;;;;;;5.83;79.51;101362.66;5055425;28;20061;-71
2021/05/01 04:12:25;;;;;;;28.30;16.40;;;;;;;5.87;79.16;101356.31;5039113;28;20084;-71
2021/05/01 04:14:51;;;;;;;26.85;16.80;;;;;;;5.91;79.72;101361.19;5052621;28;20140;-71
2021/05/01 04:17:18;;;;;;;26.52;16.60;;;;;;;5.93;78.98;101364.53;5044762;28;20048;-71
2021/05/01 04:19:44;;;;;;;24.48;16.40;;;;;;;5.92;79.02;101359.44;5052438;28;20522;-71
2021/05/01 04:22:10;;;;;;;24.77;15.48;;;;;;;5.96;78.65;101365.28;5047225;28;20637;-72
2021/05/01 04:24:36;;;;;;;28.23;17.05;;;;;;;5.92;78.23;101362.88;5044740;28;20055;-72
2021/05/01 04:27:02;;;;;;;26.85;16.25;;;;;;;5.87;78.29;101369.31;5042987;28;20056;-71
2021/05/01 04:29:30;;;;;;;29.60;16.98;;;;;;;5.83;78.81;101362.66;5040862;28;20059;-72
2021/05/01 04:31:56;;;;;;;30.85;16.98;;;;;;;5.79;78.79;101361.19;5058838;28;20541;-71
2021/05/01 04:34:22;;;;;;;27.98;16.25;;;;;;;5.78;78.52;101362.94;5048969;28;20064;-71
2021/05/01 04:36:48;;;;;;;23.02;15.55;;;;;;;5.70;78.86;101355.66;5055301;28;20424;-71
2021/05/01 04:39:14;;;;;;;25.00;17.45;;;;;;;5.72;79.08;101372.03;5059421;28;20115;-71
2021/05/01 04:41:40;;;;;;;31.60;17.08;;;;;;;5.68;79.03;101373.13;5053141;28;20131;-72
2021/05/01 04:44:06;;;;;;;26.30;18.63;;;;;;;5.68;79.60;101369.69;5052137;28;20241;-73
2021/05/01 04:46:32;;;;;;;28.40;18.83;;;;;;;5.65;79.15;101373.34;5036003;28;20070;-72
2021/05/01 04:48:58;;;;;;;31.38;18.40;;;;;;;5.69;79.17;101371.38;5059433;28;20174;-72
2021/05/01 04:51:25;;;;;;;30.65;19.48;;;;;;;5.71;79.25;101372.94;5058573;28;20133;-72
2021/05/01 04:53:51;;;;;;;27.75;18.15;;;;;;;5.71;79.71;101378.16;5051806;28;20076;-72
2021/05/01 04:56:17;;;;;;;28.98;19.13;;;;;;;5.69;79.16;101385.22;5051755;28;20047;-72
2021/05/01 04:58:43;;;;;;;26.65;18.27;;;;;;;5.68;79.54;101380.94;5036124;28;20135;-71
2021/05/01 05:01:09;;;;;;;29.92;18.65;;;;;;;5.69;79.49;101387.81;5051242;28;20048;-72
2021/05/01 05:03:35;;;;;;;35.00;20.00;;;;;;;5.69;79.69;101382.63;5047477;28;20080;-73
2021/05/01 05:06:01;;;;;;;30.98;17.73;;;;;;;5.71;79.54;101388.56;5052347;28;20152;-72
2021/05/01 05:08:27;;;;;;;32.90;18.92;;;;;;;5.68;79.30;101387.91;5058187;28;20048;-72
2021/05/01 05:10:53;;;;;;;29.85;19.85;;;;;;;5.67;79.54;101394.91;5048442;28;20148;-72
2021/05/01 05:13:23;;;;;;;28.60;19.40;;;;;;;5.66;80.08;101401.03;5053509;28;20064;-72
2021/05/01 05:15:49;;;;;;;28.95;20.20;;;;;;;5.69;80.47;101398.25;5049991;28;20474;-72
2021/05/01 05:18:15;;;;;;;30.05;21.02;;;;;;;5.63;79.99;101393.44;5059986;28;20055;-73
2021/05/01 05:20:41;;;;;;;30.90;20.52;;;;;;;5.65;80.69;101395.94;5049318;28;20080;-72
2021/05/01 05:23:07;;;;;;;27.88;19.63;;;;;;;5.63;81.02;101396.03;5050079;28;20506;-72
2021/05/01 05:25:33;;;;;;;32.13;20.83;;;;;;;5.60;80.94;101401.44;5049033;28;20118;-72
2021/05/01 05:28:00;;;;;;;31.67;22.05;;;;;;;5.66;81.22;101411.44;5046036;28;20057;-73
2021/05/01 05:30:26;;;;;;;35.75;21.27;;;;;;;5.63;81.13;101408.22;5056786;28;20141;-72
2021/05/01 05:32:54;;;;;;;31.80;21.55;;;;;;;5.62;80.65;101409.16;5032481;28;20052;-72
2021/05/01 05:35:20;;;;;;;38.67;22.95;;;;;;;5.58;81.57;101411.09;5056325;28;20130;-72
2021/05/01 05:37:46;;;;;;;32.58;23.20;;;;;;;5.56;81.24;101420.78;5044113;28;20493;-72
2021/05/01 05:40:13;;;;;;;38.90;24.20;;;;;;;5.54;81.13;101420.06;5049623;28;20460;-72
2021/05/01 05:42:44;;;;;;;37.35;25.23;;;;;;;5.52;81.58;101421.91;5055664;28;20059;-72
2021/05/01 05:45:11;;;;;;;35.25;23.45;;;;;;;5.55;81.66;101427.75;5048978;28;20503;-72
2021/05/01 05:47:37;;;;;;;36.55;23.73;;;;;;;5.58;81.25;101431.09;5056150;28;20396;-72
2021/05/01 05:50:05;;;;;;;35.03;23.38;;;;;;;5.63;81.95;101423.84;5047781;28;20156;-72
2021/05/01 05:52:31;;;;;;;38.40;24.00;;;;;;;5.63;81.24;101421.25;5027796;28;20133;-72
2021/05/01 05:54:59;;;;;;;37.25;24.23;;;;;;;5.58;81.97;101426.72;5045816;28;20126;-72
2021/05/01 05:57:26;;;;;;;;;;;;;;;5.68;81.93;101429.56;5036465;28;20048;-72
2021/05/01 05:59:52;;;;;;;41.83;23.73;;;;;;;5.67;81.77;101422.72;5057263;28;19925;-72
2021/05/01 06:02:22;;;;;;;45.38;25.48;;;;;;;5.75;81.27;101428.25;5048202;28;20052;-73
2021/05/01 06:05:13;;;;;;;38.03;25.40;;;;;;;5.82;81.79;101419.09;5057843;28;20456;-72
2021/05/01 06:07:48;;;;;;;41.88;24.63;;;;;;;5.88;81.98;101418.69;5037964;28;20076;-72
2021/05/01 06:10:14;;;;;;;38.30;25.40;;;;;;;5.90;81.39;101418.56;5046169;28;20562;-72
2021/05/01 06:12:42;;;;;;;42.80;24.80;;;;;;;5.98;81.22;101420.69;5047792;28;20080;-73
2021/05/01 06:15:13;;;;;;;40.85;24.15;;;;;;;6.04;81.26;101426.34;5047018;28;20566;-72
2021/05/01 06:17:41;;;;;;;40.67;24.02;;;;;;;6.15;81.17;101425.63;5054191;28;20052;-72
2021/05/01 06:20:09;;;;;;;34.53;23.38;;;;;;;6.16;80.98;101429.09;5043859;28;20052;-72
2021/05/01 06:22:35;;;;;;;42.30;24.40;;;;;;;6.24;80.95;101432.84;5029300;28;20056;-72
2021/05/01 06:25:05;;;;;;;40.95;23.92;;;;;;;6.24;80.54;101421.59;5023973;28;20053;-73
2021/05/01 06:27:31;;;;;;;41.45;25.02;;;;;;;6.32;80.76;101430.53;5051388;28;20524;-72
2021/05/01 06:29:57;;;;;;;43.95;25.08;;;;;;;6.38;80.37;101424.09;5048877;28;20048;-72
2021/05/01 06:32:23;;;;;;;39.38;24.75;;;;;;;6.46;80.72;101424.38;5051972;28;20546;-72
2021/05/01 06:34:55;;;;;;;39.00;25.02;;;;;;;6.48;80.41;101426.91;5036161;28;20140;-72
2021/05/01 06:37:23;;;;;;;39.88;24.20;;;;;;;6.52;79.73;101426.56;5043755;28;20056;-72
2021/05/01 06:39:51;;;;;;;40.55;24.55;;;;;;;6.52;80.41;101429.16;5056068;28;20548;-72
2021/05/01 06:42:29;;;;;;;34.08;23.77;;;;;;;6.56;79.50;101429.81;5048162;28;20144;-72
2021/05/01 06:45:13;;;;;;;44.13;23.85;;;;;;;6.58;79.87;101427.09;5033540;28;20079;-72
2021/05/01 06:47:59;;;;;;;37.67;22.77;;;;;;;6.65;80.30;101425.75;5045562;28;20071;-72
2021/05/01 06:50:27;;;;;;;33.53;22.35;;;;;;;6.64;79.68;101430.09;5036443;28;20452;-72
2021/05/01 06:52:56;;;;;;;32.05;22.70;;;;;;;6.62;80.44;101428.56;5049625;28;20142;-72
2021/05/01 06:55:25;;;;;;;39.53;24.52;;;;;;;6.76;80.41;101428.41;5047544;28;20082;-72
2021/05/01 06:57:53;;;;;;;43.40;25.50;;;;;;;6.86;80.33;101426.00;5056038;28;20447;-72
2021/05/01 07:00:22;;;;;;;37.28;23.40;;;;;;;6.90;80.40;101430.91;5043891;28;20072;-73
2021/05/01 07:02:50;;;;;;;36.03;21.45;;;;;;;6.86;79.22;101441.66;5035706;28;20584;-73
2021/05/01 07:05:20;;;;;;;38.85;24.17;;;;;;;6.96;79.65;101423.59;5047703;28;20052;-73
2021/05/01 07:07:47;;;;;;;38.83;22.58;;;;;;;7.05;80.05;101418.56;5047211;28;20473;-74
2021/05/01 07:10:14;;;;;;;33.70;21.17;;;;;;;7.05;79.23;101423.78;5035174;28;20049;-73
2021/05/01 07:12:42;;;;;;;28.13;18.52;;;;;;;7.10;79.20;101420.84;5045349;28;20048;-73
2021/05/01 07:15:11;;;;;;;28.50;17.10;;;;;;;7.15;77.31;101426.56;5054678;28;20162;-72
2021/05/01 07:17:38;;;;;;;27.52;17.27;;;;;;;7.26;78.02;101428.41;5029887;28;20289;-73
2021/05/01 07:20:07;;;;;;;28.35;18.75;;;;;;;7.36;78.50;101418.16;5040912;28;20547;-72
2021/05/01 07:22:34;;;;;;;25.40;12.48;;;;;;;7.37;76.24;101431.09;5050425;28;20048;-72
2021/05/01 07:25:01;;;;;;;20.85;13.68;;;;;;;7.55;77.13;101428.06;5055953;28;20064;-73
2021/05/01 07:27:40;;;;;;;22.00;12.10;;;;;;;7.66;76.45;101428.13;5043089;28;20152;-72
2021/05/01 07:30:07;;;;;;;18.35;10.15;;;;;;;7.69;75.69;101430.53;5029303;28;20060;-73
2021/05/01 07:32:38;;;;;;;19.98;12.00;;;;;;;7.82;75.79;101426.06;5048207;28;20106;-72
2021/05/01 07:35:07;;;;;;;24.42;12.50;;;;;;;7.76;74.12;101418.66;5031531;28;20057;-72
2021/05/01 07:37:37;;;;;;;23.25;13.43;;;;;;;7.88;74.56;101423.00;5054240;28;20065;-72
2021/05/01 07:40:06;;;;;;;21.65;13.90;;;;;;;8.01;74.66;101424.69;5044455;28;20614;-72
2021/05/01 07:42:39;;;;;;;;;;;;;;;8.15;74.45;101428.88;5051385;28;20049;-73
2021/05/01 07:45:07;;;;;;;29.58;16.52;;;;;;;8.25;74.87;101424.59;5034424;28;20647;-73
2021/05/01 07:47:34;;;;;;;25.13;14.98;;;;;;;8.27;73.24;101426.19;5038905;28;20498;-72
2021/05/01 07:50:02;;;;;;;23.10;12.73;;;;;;;8.32;72.68;101423.22;5057502;28;20365;-73
2021/05/01 07:52:31;;;;;;;25.58;13.02;;;;;;;8.39;72.20;101421.81;5048608;28;20068;-74
2021/05/01 07:54:58;;;;;;;19.38;12.07;;;;;;;8.41;70.90;101427.78;5057960;28;20083;-74
2021/05/01 07:57:25;;;;;;;24.83;12.38;;;;;;;8.49;70.61;101420.16;5047650;28;20056;-73
2021/05/01 07:59:51;;;;;;;22.58;12.05;;;;;;;8.56;70.28;101420.50;5044458;28;20184;-72
2021/05/01 08:02:17;;;;;;;25.10;11.95;;;;;;;8.52;69.58;101424.31;5031956;28;20052;-73
2021/05/01 08:04:57;;;;;;;20.85;12.10;;;;;;;8.58;69.53;101428.25;5054503;28;20452;-72
2021/05/01 08:07:23;;;;;;;20.77;13.30;;;;;;;8.60;69.51;101435.00;5053854;28;20061;-72
2021/05/01 08:09:49;;;;;;;23.25;13.40;;;;;;;8.50;68.53;101428.84;5050823;28;20055;-73
2021/05/01 08:12:15;;;;;;;21.30;11.98;;;;;;;8.54;68.47;101424.22;5055842;28;20057;-74
2021/05/01 08:14:41;;;;;;;16.88;9.75;;;;;;;8.77;67.89;101440.75;5048904;28;20591;-75
2021/05/01 08:17:07;;;;;;;16.40;10.63;;;;;;;9.04;66.67;101443.81;5054620;28;20066;-73
2021/05/01 08:19:34;;;;;;;20.17;12.20;;;;;;;9.37;67.38;101444.69;5050692;28;20052;-72
2021/05/01 08:22:00;;;;;;;29.85;12.98;;;;;;;9.73;66.78;101434.81;5059563;28;20337;-73
2021/05/01 08:24:26;;;;;;;19.20;10.57;;;;;;;10.06;64.33;101433.81;5058830;28;20048;-73
2021/05/01 08:26:52;;;;;;;14.38;8.77;;;;;;;10.36;62.95;101441.88;5047432;28;20052;-72
2021/05/01 08:29:18;;;;;;;14.95;7.68;;;;;;;10.61;58.43;101438.00;5038731;28;20109;-74
2021/05/01 08:31:44;;;;;;;14.13;7.20;;;;;;;10.55;56.08;101430.66;5047759;28;20044;-73
2021/05/01 08:34:11;;;;;;;11.90;7.70;;;;;;;10.57;57.98;101437.44;5056595;28;20680;-73
2021/05/01 08:36:37;;;;;;;15.05;8.32;;;;;;;10.61;58.11;101435.38;5048212;28;20073;-73
2021/05/01 08:39:03;;;;;;;16.73;9.13;;;;;;;10.51;56.75;101427.47;5048337;28;20083;-73
2021/05/01 08:41:29;;;;;;;17.05;10.18;;;;;;;10.87;58.12;101426.06;5064615;28;20155;-74
2021/05/01 08:44:04;;;;;;;15.32;9.27;;;;;;;10.91;58.47;101420.56;5048023;28;20056;-74
2021/05/01 08:46:30;;;;;;;22.98;11.10;;;;;;;10.68;58.55;101416.34;5031188;28;20048;-74
2021/05/01 08:48:56;;;;;;;13.05;7.75;;;;;;;10.86;54.68;101413.09;5050381;28;20072;-73
2021/05/01 08:51:22;;;;;;;8.00;5.82;;;;;;;11.14;53.34;101410.69;5052017;28;20159;-73
2021/05/01 08:53:48;;;;;;;12.20;7.20;;;;;;;11.32;53.78;101401.16;5051749;28;20431;-74
2021/05/01 08:56:19;;;;;;;13.65;6.25;;;;;;;11.73;54.67;101408.91;5053582;28;20281;-71
2021/05/01 08:58:47;;;;;;;11.13;7.00;;;;;;;12.21;54.35;101408.00;5057417;28;20135;-72
2021/05/01 09:01:15;;;;;;;13.30;6.50;;;;;;;12.28;54.59;101417.00;5049154;28;20052;-71
2021/05/01 09:03:44;;;;;;;12.60;6.55;;;;;;;12.09;55.15;101417.03;5039811;28;20511;-72
2021/05/01 09:06:11;;;;;;;10.63;5.60;;;;;;;12.15;53.46;101416.47;5046722;28;20171;-72
2021/05/01 09:08:40;;;;;;;9.73;6.00;;;;;;;12.46;54.06;101402.09;5053045;28;20442;-72
2021/05/01 09:11:07;;;;;;;13.27;5.97;;;;;;;12.43;50.92;101404.22;5054335;28;20049;-72
2021/05/01 09:13:33;;;;;;;11.25;5.75;;;;;;;12.10;50.13;101408.19;5049744;28;20056;-73
2021/05/01 09:16:02;;;;;;;11.82;5.90;;;;;;;12.02;49.71;101403.66;5050621;28;20156;-72
2021/05/01 09:18:43;;;;;;;12.95;6.22;;;;;;;12.20;50.47;101401.94;5047983;28;20051;-73
2021/05/01 09:21:20;;;;;;;11.40;5.85;;;;;;;12.49;50.01;101395.75;5047641;28;20079;-72
2021/05/01 09:23:46;;;;;;;15.93;6.32;;;;;;;12.96;51.27;101390.38;5045205;28;20780;-73
2021/05/01 09:26:13;;;;;;;12.52;6.30;;;;;;;13.08;49.08;101391.00;5057233;28;20091;-73
2021/05/01 09:28:41;;;;;;;8.75;5.70;;;;;;;12.56;47.36;101393.34;5045545;28;20554;-73
2021/05/01 09:31:11;;;;;;;11.07;5.45;;;;;;;12.65;46.96;101393.31;5058216;28;20650;-73
2021/05/01 09:33:47;;;;;;;14.25;6.13;;;;;;;12.92;47.73;101389.03;5050006;28;20114;-74
2021/05/01 09:36:22;;;;;;;10.80;5.90;;;;;;;12.77;47.66;101374.69;5042958;28;20515;-72
2021/05/01 09:39:09;;;;;;;11.05;5.93;;;;;;;13.36;52.00;101383.88;5039525;28;20132;-72
2021/05/01 09:41:43;;;;;;;11.35;5.82;;;;;;;14.01;50.07;101393.28;5048768;28;20173;-71
2021/05/01 09:44:17;;;;;;;14.27;5.97;;;;;;;14.03;45.18;101396.59;5047985;28;20144;-71
2021/05/01 09:46:49;;;;;;;10.10;5.68;;;;;;;13.41;44.73;101401.91;5046929;28;20072;-70
2021/05/01 09:49:22;;;;;;;11.60;5.05;;;;;;;13.21;46.26;101395.88;5025767;28;20647;-70
2021/05/01 09:52:02;;;;;;;7.93;4.85;;;;;;;13.20;44.98;101397.69;5042838;28;20756;-71
2021/05/01 09:54:31;;;;;;;12.40;6.10;;;;;;;13.28;45.79;101390.88;5051682;28;20080;-72
2021/05/01 09:57:01;;;;;;;8.80;5.38;;;;;;;13.12;47.35;101394.16;5029474;28;20076;-71
2021/05/01 09:59:40;;;;;;;12.35;5.90;;;;;;;13.08;47.14;101391.00;5044735;28;20047;-70
2021/05/01 10:02:11;;;;;;;11.77;5.78;;;;;;;13.40;45.70;101387.88;5051643;28;20064;-70
2021/05/01 10:04:38;;;;;;;10.25;5.30;;;;;;;13.18;45.30;101398.84;5043682;28;20056;-72
2021/05/01 10:07:07;;;;;;;12.07;5.10;;;;;;;12.88;45.69;101387.66;5038217;28;20456;-72
2021/05/01 10:09:41;;;;;;;10.15;5.10;;;;;;;13.04;44.94;101403.63;5049722;28;20098;-70
2021/05/01 10:12:16;;;;;;;9.15;5.25;;;;;;;12.61;45.57;101402.47;5046462;28;20060;-70
2021/05/01 10:14:52;;;;;;;11.18;4.80;;;;;;;12.70;42.87;101395.53;5050100;28;20472;-71
2021/05/01 10:17:22;;;;;;;8.52;4.90;;;;;;;12.74;41.40;101385.50;5055668;28;20060;-71
2021/05/01 10:20:00;;;;;;;8.98;4.60;;;;;;;13.46;44.19;101386.44;5049402;28;20487;-71
2021/05/01 10:22:29;;;;;;;7.13;5.38;;;;;;;13.54;44.77;101389.13;5038301;28;20772;-69
2021/05/01 10:24:58;;;;;;;7.95;5.05;;;;;;;13.41;44.39;101394.81;5055265;28;20127;-69
2021/05/01 10:27:24;;;;;;;10.55;5.28;;;;;;;13.30;44.38;101384.50;5020169;28;20144;-70
2021/05/01 10:30:03;;;;;;;9.20;4.80;;;;;;;13.36;43.37;101385.69;5050804;28;20729;-70
2021/05/01 10:32:32;;;;;;;10.10;4.68;;;;;;;13.45;45.92;101384.81;5047687;28;20143;-70
2021/05/01 10:34:59;;;;;;;9.85;4.93;;;;;;;13.33;45.08;101389.47;5048903;28;20048;-71
2021/05/01 10:37:31;;;;;;;7.88;4.78;;;;;;;13.39;44.51;101383.59;5054517;28;20526;-71
2021/05/01 10:39:58;;;;;;;8.32;5.28;;;;;;;13.02;43.56;101388.97;5051085;28;20524;-71
2021/05/01 10:42:24;;;;;;;10.55;5.18;;;;;;;13.01;45.83;101397.81;5057664;28;20091;-71
2021/05/01 10:44:58;;;;;;;11.98;5.07;;;;;;;12.41;45.67;101399.09;5027164;28;20139;-70
2021/05/01 10:47:25;;;;;;;12.13;5.63;;;;;;;12.23;46.91;101406.06;5054554;28;20052;-71
2021/05/01 10:50:20;;;;;;;9.30;5.57;;;;;;;12.19;48.33;101402.91;5048310;28;20374;-71
2021/05/01 10:52:47;;;;;;;11.30;5.68;;;;;;;11.90;46.85;101402.97;5053474;28;20056;-70
2021/05/01 10:55:13;;;;;;;9.73;5.32;;;;;;;11.92;47.30;101410.69;5047145;28;20132;-70
2021/05/01 10:57:40;;;;;;;7.82;5.15;;;;;;;12.13;48.35;101400.84;5050978;28;20518;-71
2021/05/01 11:00:09;;;;;;;11.15;5.82;;;;;;;12.23;48.43;101408.69;5058603;28;20044;-70
2021/05/01 11:02:35;;;;;;;13.00;6.57;;;;;;;11.98;47.23;101405.72;5040370;28;20525;-70
2021/05/01 11:05:05;;;;;;;10.10;5.20;;;;;;;12.06;47.99;101412.91;5039195;28;20060;-71
2021/05/01 11:08:07;;;;;;;14.70;6.47;;;;;;;12.21;48.76;101400.97;5037995;28;20065;-72
2021/05/01 11:10:34;;;;;;;12.35;5.78;;;;;;;12.28;49.19;101406.47;5053047;28;20052;-71
2021/05/01 11:13:03;;;;;;;11.77;5.55;;;;;;;12.49;49.40;101410.72;5045881;28;20064;-71
2021/05/01 11:15:43;;;;;;;9.75;5.80;;;;;;;12.61;49.14;101401.66;5038844;28;20059;-72
2021/05/01 11:18:09;;;;;;;11.05;5.20;;;;;;;12.72;47.08;101405.88;5054438;28;20064;-73
2021/05/01 11:20:36;;;;;;;12.50;5.45;;;;;;;13.04;49.38;101402.81;5049465;28;20052;-71
2021/05/01 11:23:05;;;;;;;10.10;5.18;;;;;;;13.10;47.50;101404.03;5053315;28;20059;-72